aviador You're here:

PAFS Decoded Metar

NIKOLAI in AK, USA
Report Time2017-06-25 06:01:00
UTC Time2017-06-25 06:53:36
Flight Rules unknown UNKNOWN
Wind350° at 06 kt
W.Decomp.*RWY 04: 2.2 kt HW 5.6 kt LCW
W.Rank350° ranks 28
Current wind is above 350° avg. (5.2)
VisibilityN/A
Phenomena:N/A
Clouds:Broken 110 Hf
Expected CloudBase > 4,400 ft AGL from Temp-Dew spread
Ceiling11,000 ft
Temp19°C (ISA +5)
Dew Point08°C (49% RH)
AAT16.4°C
QNH1018 hPa
Density Alt958 ft
Elevation413 ft
Report Wrong Elevation
Raw Report
PAFS 250601Z AUTO 35006KT BKN110 19/08 A3006=

Extra information for PAFS:More info

Metar Taf Metar & Taf Last 4 Metars F.Rules Stats Wind Profile Meteogram Temp Stats Airport Information Weather charts Add Link Nearby VenuesMetar ALERT Operation Metar Decoded Social comments

AIRNAV info for PAFS